Time;durP1;ratioP1;P1;durP2;ratioP2;P2;SDS_P1;SDS_P2;PMS_P1;PMS_P2;Temp;Humidity;BMP_temperature;BMP_pressure;BME280_temperature;BME280_humidity;BME280_pressure;Samples;Min_cycle;Max_cycle;Signal;HPM_P1;HPM_P2
2023/02/20 00:10:17;;;;;;;17.10;7.97;;;;;;;4.98;100.00;99407.91;31236289;28;20115;-80
2023/02/20 00:25:20;;;;;;;13.40;7.10;;;;;;;5.05;100.00;99399.78;31240261;28;20061;-76
2023/02/20 00:40:23;;;;;;;14.37;5.53;;;;;;;5.01;100.00;99423.25;31262632;28;20052;-77
2023/02/20 00:55:25;;;;;;;10.13;4.43;;;;;;;5.01;100.00;99399.03;31220313;28;20060;-76
2023/02/20 01:10:27;;;;;;;8.40;3.33;;;;;;;5.16;100.00;99415.09;31270513;28;20096;-78
2023/02/20 01:25:30;;;;;;;9.73;3.30;;;;;;;5.00;100.00;99410.97;31231738;28;20041;-79
2023/02/20 01:40:34;;;;;;;6.00;3.70;;;;;;;4.95;100.00;99411.41;31223732;28;20049;-76
2023/02/20 01:55:41;;;;;;;8.60;4.17;;;;;;;4.90;100.00;99409.13;31225997;28;20130;-77
2023/02/20 02:10:55;;;;;;;7.90;3.80;;;;;;;4.96;100.00;99402.16;31229352;28;20485;-77
2023/02/20 02:26:34;;;;;;;7.30;3.80;;;;;;;4.89;100.00;99413.00;31233217;28;20183;-76
2023/02/20 02:41:39;;;;;;;9.17;5.03;;;;;;;4.89;100.00;99422.97;31236033;28;20057;-79
2023/02/20 02:56:46;;;;;;;10.80;4.77;;;;;;;4.74;100.00;99431.13;31221115;28;20056;-75
2023/02/20 03:11:48;;;;;;;12.90;5.17;;;;;;;4.63;100.00;99465.41;31231222;28;20115;-77
2023/02/20 03:26:54;;;;;;;7.37;4.73;;;;;;;4.65;100.00;99456.94;31230035;28;20057;-76
2023/02/20 03:57:40;;;;;;;7.43;4.00;;;;;;;4.07;100.00;99466.41;31227784;28;20054;-77
2023/02/20 04:12:45;;;;;;;10.93;4.33;;;;;;;3.81;100.00;99464.19;31222029;28;20115;-76
2023/02/20 04:27:47;;;;;;;10.10;3.60;;;;;;;3.66;100.00;99483.03;31219857;28;20045;-75
2023/02/20 04:42:49;;;;;;;7.07;3.03;;;;;;;3.57;100.00;99488.03;31215660;28;20057;-81
2023/02/20 04:57:56;;;;;;;8.83;4.60;;;;;;;3.54;100.00;99499.56;31234602;28;20049;-82
2023/02/20 05:12:59;;;;;;;5.37;3.50;;;;;;;3.52;100.00;99507.22;31239052;28;20049;-81
2023/02/20 05:28:01;;;;;;;8.40;3.57;;;;;;;3.40;100.00;99529.06;31241231;28;20107;-80
2023/02/20 05:43:03;;;;;;;5.17;2.67;;;;;;;3.55;100.00;99549.38;31221237;28;20071;-80
2023/02/20 05:58:05;;;;;;;6.57;3.67;;;;;;;3.96;100.00;99557.03;31221286;28;20050;-76
2023/02/20 06:13:07;;;;;;;6.10;3.10;;;;;;;4.03;100.00;99567.72;31226441;28;20568;-76
2023/02/20 06:28:09;;;;;;;5.40;2.90;;;;;;;4.26;100.00;99565.38;31231441;28;20079;-74
2023/02/20 06:43:11;;;;;;;4.57;2.27;;;;;;;4.41;100.00;99572.25;31224213;28;20068;-76
2023/02/20 06:58:13;;;;;;;4.87;2.50;;;;;;;5.05;100.00;99571.19;31213006;28;20053;-75
2023/02/20 07:13:15;;;;;;;4.27;2.50;;;;;;;7.88;100.00;99559.06;31217247;28;20057;-74
2023/02/20 07:28:18;;;;;;;6.57;2.87;;;;;;;10.09;100.00;99554.28;31217931;28;20050;-77
2023/02/20 07:43:20;;;;;;;5.30;2.47;;;;;;;10.88;97.90;99561.78;31256475;28;20068;-74
2023/02/20 07:58:24;;;;;;;3.07;1.97;;;;;;;11.84;100.00;99570.44;31217627;28;20108;-76
2023/02/20 08:13:26;;;;;;;4.37;2.97;;;;;;;12.01;79.33;99579.22;31226014;28;20134;-74
2023/02/20 08:28:28;;;;;;;6.40;2.17;;;;;;;12.52;73.94;99573.53;31255241;28;20049;-84
2023/02/20 08:43:30;;;;;;;2.50;1.70;;;;;;;13.18;66.09;99572.28;31267771;28;20733;-81
2023/02/20 08:58:32;;;;;;;3.27;1.43;;;;;;;13.50;64.25;99562.06;31292841;28;20471;-82
2023/02/20 09:13:40;;;;;;;2.57;1.40;;;;;;;13.18;55.26;99553.19;31269657;28;20076;-81
2023/02/20 09:28:42;;;;;;;4.47;1.40;;;;;;;13.41;52.09;99553.88;31275731;28;20108;-83
2023/02/20 09:43:54;;;;;;;5.77;1.70;;;;;;;14.27;48.80;99536.22;31247415;28;20053;-81
2023/02/20 09:58:59;;;;;;;2.67;1.37;;;;;;;14.30;46.15;99548.19;31239362;28;20081;-77
2023/02/20 10:14:39;;;;;;;2.67;1.60;;;;;;;13.67;46.15;99566.06;31273142;28;20056;-79
2023/02/20 10:29:44;;;;;;;2.90;1.80;;;;;;;14.20;45.20;99552.13;31237203;28;20088;-79
2023/02/20 10:44:55;;;;;;;3.43;1.77;;;;;;;14.61;44.37;99548.78;31218837;28;20065;-74
2023/02/20 11:00:08;;;;;;;2.83;1.77;;;;;;;13.95;46.27;99577.75;31208776;28;20049;-82
2023/02/20 11:15:17;;;;;;;5.07;1.63;;;;;;;12.76;43.87;99576.56;31211529;28;20133;-77
2023/02/20 11:30:31;;;;;;;9.13;2.20;;;;;;;10.82;46.51;99590.69;31234612;28;20058;-71
2023/02/20 11:45:33;;;;;;;18.90;3.30;;;;;;;12.23;46.69;99568.38;31220496;28;20144;-72
2023/02/20 12:00:50;;;;;;;3.03;1.87;;;;;;;13.44;42.44;99566.63;31227609;28;20042;-74
2023/02/20 12:16:33;;;;;;;15.70;1.80;;;;;;;13.19;41.85;99586.66;31207425;28;20409;-74
2023/02/20 12:32:07;;;;;;;5.03;1.50;;;;;;;10.93;47.06;99629.91;31207947;28;20048;-72
2023/02/20 12:47:35;;;;;;;2.60;1.20;;;;;;;9.22;54.19;99606.31;31211884;28;20057;-72
2023/02/20 13:03:08;;;;;;;4.60;1.30;;;;;;;8.40;62.83;99609.94;31201878;28;20050;-77
2023/02/20 13:18:49;;;;;;;4.60;1.20;;;;;;;7.81;67.98;99599.72;31228462;28;20045;-74
2023/02/20 13:34:12;;;;;;;2.97;1.10;;;;;;;7.83;62.15;99602.78;31230338;28;20103;-76
2023/02/20 13:49:51;;;;;;;2.07;1.30;;;;;;;7.51;65.57;99616.03;31269041;28;20448;-78
2023/02/20 14:05:05;;;;;;;1.70;1.33;;;;;;;7.18;67.07;99604.16;31239713;28;20057;-75
2023/02/20 14:20:18;;;;;;;1.17;1.10;;;;;;;7.02;68.22;99593.97;31220669;28;20053;-79
2023/02/20 14:35:48;;;;;;;2.90;1.30;;;;;;;7.21;70.79;99589.09;31225864;28;20080;-77
2023/02/20 14:51:08;;;;;;;1.50;1.00;;;;;;;6.93;76.03;99595.63;31207972;28;20061;-74
2023/02/20 15:06:14;;;;;;;5.47;1.23;;;;;;;6.64;81.17;99604.06;31220534;28;20471;-77
2023/02/20 15:21:39;;;;;;;4.53;1.43;;;;;;;6.43;79.75;99613.16;31214768;28;20059;-72
2023/02/20 15:36:41;;;;;;;1.83;1.20;;;;;;;6.17;82.98;99621.91;31230377;28;20115;-78
2023/02/20 15:51:43;;;;;;;2.57;1.20;;;;;;;5.77;90.37;99643.00;31224269;28;20072;-71
2023/02/20 16:06:45;;;;;;;2.50;1.10;;;;;;;5.64;96.82;99636.56;31137353;28;20038;-80
2023/02/20 16:21:47;;;;;;;2.57;1.47;;;;;;;5.68;100.00;99620.34;31069740;28;20077;-75
2023/02/20 16:37:02;;;;;;;3.47;1.77;;;;;;;5.56;99.63;99610.06;31083508;28;20046;-82
2023/02/20 16:52:18;;;;;;;4.50;2.20;;;;;;;5.49;95.76;99611.66;31093216;28;20058;-78
2023/02/20 17:07:29;;;;;;;4.27;2.40;;;;;;;5.36;95.23;99591.75;31104225;28;20073;-71
2023/02/20 17:22:31;;;;;;;6.70;2.53;;;;;;;5.21;98.57;99597.59;31099347;28;20050;-73
2023/02/20 17:37:33;;;;;;;4.73;2.40;;;;;;;5.07;100.00;99596.53;31108360;28;20116;-71
2023/02/20 17:52:36;;;;;;;6.40;3.53;;;;;;;4.87;100.00;99575.91;31088383;28;20053;-73
2023/02/20 18:07:38;;;;;;;2.40;1.73;;;;;;;4.45;100.00;99561.50;31097514;28;20045;-70
2023/02/20 18:22:40;;;;;;;4.23;2.07;;;;;;;4.32;100.00;99531.59;31101710;28;20449;-72
2023/02/20 18:37:42;;;;;;;13.80;5.37;;;;;;;4.33;100.00;99505.47;31099169;28;20042;-71
2023/02/20 18:52:48;;;;;;;3.97;2.27;;;;;;;4.17;100.00;99497.09;31091064;28;20457;-72
2023/02/20 19:07:50;;;;;;;7.07;3.10;;;;;;;3.94;100.00;99481.44;31098071;28;20474;-77
2023/02/20 19:22:53;;;;;;;7.23;2.50;;;;;;;3.89;100.00;99465.72;31090391;28;20438;-76
2023/02/20 19:37:55;;;;;;;6.53;3.00;;;;;;;3.84;100.00;99441.94;31110379;28;20041;-78
2023/02/20 19:52:57;;;;;;;18.97;7.73;;;;;;;4.03;100.00;99446.88;31077239;28;20112;-75
2023/02/20 20:07:59;;;;;;;4.90;3.20;;;;;;;4.18;100.00;99418.81;31101486;28;20057;-76
2023/02/20 20:23:04;;;;;;;10.43;3.93;;;;;;;4.33;100.00;99393.38;31059251;28;20062;-76
2023/02/20 20:38:07;;;;;;;6.77;4.67;;;;;;;4.31;100.00;99384.19;31066221;28;20046;-76
2023/02/20 20:53:09;;;;;;;11.13;6.37;;;;;;;4.31;100.00;99365.38;31090642;28;20117;-81
2023/02/20 21:08:11;;;;;;;5.93;4.10;;;;;;;4.20;100.00;99325.16;31088732;28;20058;-79
2023/02/20 21:23:13;;;;;;;8.80;4.53;;;;;;;4.18;100.00;99295.22;31119603;28;20112;-79
2023/02/20 21:38:15;;;;;;;11.80;5.67;;;;;;;4.47;100.00;99279.66;31080451;28;20539;-78
2023/02/20 21:53:17;;;;;;;10.30;4.67;;;;;;;4.54;100.00;99260.00;31063033;28;20465;-79
